Time;durP1;ratioP1;P1;durP2;ratioP2;P2;SDS_P1;SDS_P2;PMS_P1;PMS_P2;Temp;Humidity;BMP_temperature;BMP_pressure;BME280_temperature;BME280_humidity;BME280_pressure;Samples;Min_cycle;Max_cycle;Signal;HPM_P1;HPM_P2
2023/09/23 00:01:38;;;;;;;5.10;2.50;;;;;;;;;;5103501;28;20040;-71
2023/09/23 00:04:04;;;;;;;3.60;2.30;;;;;;;;;;5110080;28;20044;-71
2023/09/23 00:06:30;;;;;;;3.60;2.10;;;;;;;;;;5109956;28;20043;-71
2023/09/23 00:08:56;;;;;;;3.55;2.20;;;;;;;;;;5108138;28;20040;-71
2023/09/23 00:11:22;;;;;;;5.03;2.10;;;;;;;;;;5102934;28;20043;-71
2023/09/23 00:13:48;;;;;;;2.92;2.13;;;;;;;;;;5104504;28;20562;-71
2023/09/23 00:16:15;;;;;;;4.00;2.10;;;;;;;;;;5112925;28;20040;-72
2023/09/23 00:18:43;;;;;;;4.53;2.25;;;;;;;;;;5111300;28;20046;-72
2023/09/23 00:21:09;;;;;;;3.30;2.30;;;;;;;;;;5107584;28;20101;-72
2023/09/23 00:23:35;;;;;;;3.10;2.20;;;;;;;;;;5110580;28;20071;-71
2023/09/23 00:26:02;;;;;;;3.15;2.10;;;;;;;;;;5113306;28;20119;-71
2023/09/23 00:28:30;;;;;;;2.97;2.00;;;;;;;;;;5104953;28;20050;-71
2023/09/23 00:31:14;;;;;;;3.40;1.85;;;;;;;;;;5099496;28;20073;-71
2023/09/23 00:33:40;;;;;;;2.45;1.60;;;;;;;;;;5113254;28;20051;-72
2023/09/23 00:36:10;;;;;;;3.10;1.80;;;;;;;;;;5104928;28;20050;-72
2023/09/23 00:38:40;;;;;;;1.90;1.70;;;;;;;;;;5098758;28;20052;-72
2023/09/23 00:41:06;;;;;;;1.88;1.60;;;;;;;;;;5104627;28;20072;-72
2023/09/23 00:43:33;;;;;;;2.55;1.80;;;;;;;;;;5109101;28;20047;-72
2023/09/23 00:46:00;;;;;;;4.25;1.67;;;;;;;;;;5107485;28;20043;-72
2023/09/23 00:48:30;;;;;;;2.08;1.65;;;;;;;;;;5112206;28;20047;-72
2023/09/23 00:50:57;;;;;;;3.08;1.70;;;;;;;;;;5109732;28;20039;-72
2023/09/23 00:53:24;;;;;;;2.85;1.63;;;;;;;;;;5105824;28;20047;-72
2023/09/23 00:55:55;;;;;;;1.85;1.60;;;;;;;;;;5111789;28;20047;-72
2023/09/23 00:58:22;;;;;;;2.08;1.80;;;;;;;;;;5113323;28;20146;-72
2023/09/23 01:00:49;;;;;;;1.92;1.48;;;;;;;;;;5112085;28;20035;-72
2023/09/23 01:03:21;;;;;;;2.17;1.73;;;;;;;;;;5113025;28;20067;-72
2023/09/23 01:05:49;;;;;;;2.25;1.70;;;;;;;;;;5114912;28;20483;-72
2023/09/23 01:08:18;;;;;;;2.20;1.90;;;;;;;;;;5110324;28;20061;-72
2023/09/23 01:10:44;;;;;;;2.95;1.90;;;;;;;;;;5112579;28;20042;-72
2023/09/23 01:13:11;;;;;;;3.63;1.92;;;;;;;;;;5104959;28;20047;-72
2023/09/23 01:15:40;;;;;;;2.67;2.03;;;;;;;;;;5103840;28;20114;-72
2023/09/23 01:18:13;;;;;;;4.00;2.25;;;;;;;;;;5117071;27;20039;-72
2023/09/23 01:20:41;;;;;;;2.70;2.00;;;;;;;;;;5098593;28;20039;-72
2023/09/23 01:23:07;;;;;;;3.15;2.28;;;;;;;;;;5110615;28;20051;-72
2023/09/23 01:25:36;;;;;;;4.18;2.20;;;;;;;;;;5110562;28;20083;-72
2023/09/23 01:28:08;;;;;;;5.22;2.42;;;;;;;;;;5096296;28;20040;-72
2023/09/23 01:30:35;;;;;;;2.80;2.08;;;;;;;;;;5116530;28;20080;-72
2023/09/23 01:33:02;;;;;;;3.95;2.58;;;;;;;;;;5116425;28;20479;-72
2023/09/23 01:35:28;;;;;;;3.97;2.30;;;;;;;;;;5112652;28;20088;-72
2023/09/23 01:37:55;;;;;;;5.72;2.60;;;;;;;;;;5113707;28;20086;-72
2023/09/23 01:40:24;;;;;;;3.33;2.30;;;;;;;;;;5115742;28;20074;-72
2023/09/23 01:42:54;;;;;;;3.78;2.53;;;;;;;;;;5116519;28;20097;-72
2023/09/23 01:45:20;;;;;;;4.63;2.50;;;;;;;;;;5116339;28;20051;-72
2023/09/23 01:47:46;;;;;;;4.80;3.00;;;;;;;;;;5116111;27;20046;-72
2023/09/23 01:50:18;;;;;;;3.65;2.70;;;;;;;;;;5115882;27;20043;-72
2023/09/23 01:52:47;;;;;;;3.90;3.03;;;;;;;;;;5113178;28;20051;-72
2023/09/23 01:55:16;;;;;;;5.07;3.00;;;;;;;;;;5108323;28;20545;-72
2023/09/23 01:57:42;;;;;;;3.88;3.00;;;;;;;;;;5106972;28;20050;-72
2023/09/23 02:00:12;;;;;;;4.78;3.35;;;;;;;;;;5109381;27;20040;-72
2023/09/23 02:02:39;;;;;;;5.70;3.47;;;;;;;;;;5114293;28;20055;-72
2023/09/23 02:05:06;;;;;;;4.13;3.40;;;;;;;;;;5103336;28;20040;-72
2023/09/23 02:07:32;;;;;;;6.13;3.80;;;;;;;;;;5111243;28;20062;-72
2023/09/23 02:09:58;;;;;;;4.40;3.90;;;;;;;;;;5116210;28;20063;-72
2023/09/23 02:12:24;;;;;;;6.13;3.80;;;;;;;;;;5115826;28;20044;-72
2023/09/23 02:14:53;;;;;;;6.82;3.90;;;;;;;;;;5115678;28;20070;-72
2023/09/23 02:17:19;;;;;;;5.55;4.10;;;;;;;;;;5112718;27;20051;-72
2023/09/23 02:19:46;;;;;;;5.78;4.60;;;;;;;;;;5105487;28;20424;-72
2023/09/23 02:22:12;;;;;;;6.78;4.38;;;;;;;;;;5104613;28;20115;-72
2023/09/23 02:24:40;;;;;;;5.80;4.72;;;;;;;;;;5095186;28;20431;-72
2023/09/23 02:27:06;;;;;;;6.18;5.32;;;;;;;;;;5107157;28;20044;-72
2023/09/23 02:29:33;;;;;;;6.65;5.00;;;;;;;;;;5109585;28;20044;-72
2023/09/23 02:32:00;;;;;;;8.20;5.60;;;;;;;;;;5108851;28;20395;-72
2023/09/23 02:34:26;;;;;;;7.28;5.65;;;;;;;;;;5115706;28;20092;-72
2023/09/23 02:36:53;;;;;;;6.68;5.22;;;;;;;;;;5101275;28;20071;-72
2023/09/23 02:39:21;;;;;;;6.53;5.53;;;;;;;;;;5102374;28;20108;-72
2023/09/23 02:41:49;;;;;;;7.55;5.82;;;;;;;;;;5101669;28;20044;-72
2023/09/23 02:44:18;;;;;;;6.68;5.93;;;;;;;;;;5115412;28;20115;-72
2023/09/23 02:46:45;;;;;;;7.05;5.70;;;;;;;;;;5112367;28;20079;-72
2023/09/23 02:49:12;;;;;;;6.93;5.45;;;;;;;;;;5100454;28;20040;-72
2023/09/23 02:51:38;;;;;;;8.25;5.82;;;;;;;;;;5115157;28;20040;-72
2023/09/23 02:54:05;;;;;;;7.90;6.03;;;;;;;;;;5102598;28;20446;-72
2023/09/23 02:56:33;;;;;;;9.65;6.90;;;;;;;;;;5114207;28;20490;-72
2023/09/23 02:59:00;;;;;;;7.75;6.45;;;;;;;;;;5114690;27;20144;-72
2023/09/23 03:01:27;;;;;;;8.32;6.50;;;;;;;;;;5114989;28;20124;-72
2023/09/23 03:03:55;;;;;;;8.65;6.80;;;;;;;;;;5111090;28;20441;-72
2023/09/23 03:06:22;;;;;;;8.57;7.10;;;;;;;;;;5114899;28;20054;-72
2023/09/23 03:08:53;;;;;;;7.90;6.82;;;;;;;;;;5110668;28;20038;-72
2023/09/23 03:11:19;;;;;;;9.93;7.07;;;;;;;;;;5100397;28;20049;-72
2023/09/23 03:13:46;;;;;;;8.27;7.10;;;;;;;;;;5114907;28;20040;-72
2023/09/23 03:16:14;;;;;;;9.82;7.07;;;;;;;;;;5114901;28;20040;-72
2023/09/23 03:19:15;;;;;;;9.77;7.25;;;;;;;;;;5114380;28;20118;-72
2023/09/23 03:21:35;;;;;;;10.88;7.60;;;;;;;;;;5111843;28;20044;-72
2023/09/23 03:24:01;;;;;;;10.20;7.20;;;;;;;;;;5110180;28;20051;-72
2023/09/23 03:26:27;;;;;;;8.88;6.38;;;;;;;;;;5110269;28;20086;-73
2023/09/23 03:28:53;;;;;;;9.73;6.57;;;;;;;;;;5114192;28;20067;-73
2023/09/23 03:31:19;;;;;;;9.63;6.68;;;;;;;;;;5114602;28;20075;-73
2023/09/23 03:33:45;;;;;;;8.82;6.68;;;;;;;;;;5114558;28;20054;-73
2023/09/23 03:36:15;;;;;;;10.63;7.05;;;;;;;;;;5110613;28;20043;-73
2023/09/23 03:38:42;;;;;;;10.82;6.68;;;;;;;;;;5112770;27;20083;-73
2023/09/23 03:41:11;;;;;;;12.82;7.22;;;;;;;;;;5106842;28;20488;-73
2023/09/23 03:43:39;;;;;;;10.57;7.60;;;;;;;;;;5112627;28;20510;-73
2023/09/23 03:46:11;;;;;;;9.23;7.15;;;;;;;;;;5111815;28;20050;-71
2023/09/23 03:48:37;;;;;;;12.98;8.02;;;;;;;;;;5103741;28;20470;-71
2023/09/23 03:51:05;;;;;;;12.73;9.43;;;;;;;;;;5114136;28;20040;-71
2023/09/23 03:53:31;;;;;;;13.13;8.95;;;;;;;;;;5102711;27;20470;-71
2023/09/23 03:56:00;;;;;;;10.13;7.60;;;;;;;;;;5099479;28;20126;-71
2023/09/23 03:58:27;;;;;;;10.10;7.50;;;;;;;;;;5099171;28;20048;-71
2023/09/23 04:00:54;;;;;;;10.80;7.85;;;;;;;;;;5113600;28;20105;-71
2023/09/23 04:03:21;;;;;;;8.57;7.28;;;;;;;;;;5105476;28;20122;-72
2023/09/23 04:05:57;;;;;;;10.70;8.10;;;;;;;;;;5113670;28;20049;-72
2023/09/23 04:08:23;;;;;;;8.73;6.82;;;;;;;;;;5101177;28;20047;-72
2023/09/23 04:10:49;;;;;;;9.10;6.95;;;;;;;;;;5095361;28;20472;-72
2023/09/23 04:13:16;;;;;;;10.88;7.13;;;;;;;;;;5105075;28;20031;-72
2023/09/23 04:15:42;;;;;;;9.52;6.93;;;;;;;;;;5113372;28;20035;-72
2023/09/23 04:18:09;;;;;;;11.00;7.40;;;;;;;;;;5108394;28;20391;-72
2023/09/23 04:20:36;;;;;;;11.43;7.72;;;;;;;;;;5111681;27;20100;-72
2023/09/23 04:23:02;;;;;;;8.35;6.68;;;;;;;;;;5112442;28;20043;-72
2023/09/23 04:25:28;;;;;;;9.43;7.45;;;;;;;;;;5112396;28;20042;-72
2023/09/23 04:27:57;;;;;;;9.90;7.68;;;;;;;;;;5110658;28;20051;-72
2023/09/23 04:30:25;;;;;;;13.13;9.30;;;;;;;;;;5099591;28;20089;-72
2023/09/23 04:32:51;;;;;;;14.57;9.57;;;;;;;;;;5109474;28;20521;-72
2023/09/23 04:35:17;;;;;;;14.80;9.05;;;;;;;;;;5101342;28;20036;-72
2023/09/23 04:37:44;;;;;;;11.43;8.68;;;;;;;;;;5104921;28;20050;-72
2023/09/23 04:40:11;;;;;;;11.45;8.85;;;;;;;;;;5112331;28;20066;-72
2023/09/23 04:42:41;;;;;;;11.18;8.52;;;;;;;;;;5110966;28;20097;-72
2023/09/23 04:45:10;;;;;;;9.38;7.97;;;;;;;;;;5104936;28;20056;-72
2023/09/23 04:47:37;;;;;;;10.00;8.18;;;;;;;;;;5107690;28;20035;-72
2023/09/23 04:50:04;;;;;;;11.65;9.05;;;;;;;;;;5112898;28;20044;-72
2023/09/23 04:52:31;;;;;;;10.77;8.57;;;;;;;;;;5112274;28;20044;-72
2023/09/23 04:54:57;;;;;;;11.25;8.73;;;;;;;;;;5109716;28;20039;-72
2023/09/23 04:57:23;;;;;;;10.02;8.57;;;;;;;;;;5112607;28;20044;-72
2023/09/23 04:59:49;;;;;;;11.68;9.18;;;;;;;;;;5111344;28;20111;-72
2023/09/23 05:02:16;;;;;;;10.38;8.80;;;;;;;;;;5110846;28;20040;-72
2023/09/23 05:04:45;;;;;;;9.82;8.43;;;;;;;;;;5111512;28;20471;-72
2023/09/23 05:07:12;;;;;;;9.43;8.43;;;;;;;;;;5108259;28;20051;-72
2023/09/23 05:09:39;;;;;;;12.80;9.23;;;;;;;;;;5104073;28;20052;-72
2023/09/23 05:12:05;;;;;;;10.63;8.50;;;;;;;;;;5112662;28;20043;-72
2023/09/23 05:14:31;;;;;;;9.50;8.60;;;;;;;;;;5110363;28;20040;-72
2023/09/23 05:16:58;;;;;;;10.68;9.05;;;;;;;;;;5104722;28;20044;-72
2023/09/23 05:19:27;;;;;;;10.40;9.32;;;;;;;;;;5108973;28;20044;-72
2023/09/23 05:21:53;;;;;;;9.70;8.70;;;;;;;;;;5110884;28;20044;-72
2023/09/23 05:24:20;;;;;;;10.88;9.15;;;;;;;;;;5104592;28;20392;-72
2023/09/23 05:26:51;;;;;;;11.30;9.15;;;;;;;;;;5112736;28;20126;-72
2023/09/23 05:29:17;;;;;;;9.35;8.32;;;;;;;;;;5112998;28;20095;-72
2023/09/23 05:31:43;;;;;;;8.73;7.82;;;;;;;;;;5104269;28;20039;-72
2023/09/23 05:34:09;;;;;;;10.77;8.73;;;;;;;;;;5112243;28;20036;-72
2023/09/23 05:36:35;;;;;;;9.15;7.78;;;;;;;;;;5108273;28;20067;-72
2023/09/23 05:39:04;;;;;;;12.40;7.80;;;;;;;;;;5112360;28;20059;-72
2023/09/23 05:41:30;;;;;;;8.98;7.32;;;;;;;;;;5112578;28;20055;-72
2023/09/23 05:43:56;;;;;;;8.25;7.18;;;;;;;;;;5112630;28;20043;-72
2023/09/23 05:46:23;;;;;;;9.48;6.82;;;;;;;;;;5108633;28;20483;-72
2023/09/23 05:48:49;;;;;;;8.35;7.28;;;;;;;;;;5112738;28;20123;-72
2023/09/23 05:51:15;;;;;;;8.07;6.82;;;;;;;;;;5111795;28;20043;-72
2023/09/23 05:53:42;;;;;;;7.60;6.75;;;;;;;;;;5110742;28;20059;-72
2023/09/23 05:56:08;;;;;;;8.93;6.97;;;;;;;;;;5114005;28;20476;-72
2023/09/23 05:58:34;;;;;;;8.95;6.55;;;;;;;;;;5106636;27;20036;-72
2023/09/23 06:01:00;;;;;;;7.65;6.30;;;;;;;;;;5107546;28;20042;-72
2023/09/23 06:03:26;;;;;;;8.23;6.53;;;;;;;;;;5095912;28;20040;-72
2023/09/23 06:05:52;;;;;;;6.93;6.22;;;;;;;;;;5113166;28;20043;-72
2023/09/23 06:08:18;;;;;;;8.35;6.63;;;;;;;;;;5115891;28;20035;-72
2023/09/23 06:10:44;;;;;;;7.72;6.45;;;;;;;;;;5116203;28;20521;-75
2023/09/23 06:13:11;;;;;;;8.40;6.43;;;;;;;;;;5114101;28;20220;-73
2023/09/23 06:15:37;;;;;;;9.70;7.15;;;;;;;;;;5109980;28;20040;-73
2023/09/23 06:18:03;;;;;;;7.20;6.45;;;;;;;;;;5104300;28;20044;-72
2023/09/23 06:20:29;;;;;;;10.00;7.40;;;;;;;;;;5099871;28;20036;-72
2023/09/23 06:22:55;;;;;;;8.10;6.53;;;;;;;;;;5108397;28;20449;-72
2023/09/23 06:25:21;;;;;;;7.70;6.55;;;;;;;;;;5116081;27;20044;-73
2023/09/23 06:27:48;;;;;;;9.35;6.95;;;;;;;;;;5114523;28;20039;-79
2023/09/23 06:30:15;;;;;;;7.40;6.60;;;;;;;;;;5108017;28;20044;-79
2023/09/23 06:32:41;;;;;;;7.35;6.05;;;;;;;;;;5104390;28;20114;-78
2023/09/23 06:35:09;;;;;;;9.95;6.75;;;;;;;;;;5110414;28;20066;-78
2023/09/23 06:37:35;;;;;;;6.85;5.75;;;;;;;;;;5114633;27;20051;-78
2023/09/23 06:40:01;;;;;;;6.97;5.80;;;;;;;;;;5102172;28;20139;-79
2023/09/23 06:42:28;;;;;;;7.22;6.20;;;;;;;;;;5115405;28;20392;-79
2023/09/23 06:44:54;;;;;;;7.40;5.90;;;;;;;;;;5110578;28;20061;-79
2023/09/23 06:47:20;;;;;;;7.55;6.75;;;;;;;;;;5115660;28;20122;-78
2023/09/23 06:49:46;;;;;;;7.78;5.72;;;;;;;;;;5100020;28;20101;-78
2023/09/23 06:52:12;;;;;;;7.40;5.45;;;;;;;;;;5105181;28;20051;-79
2023/09/23 06:54:38;;;;;;;6.20;5.60;;;;;;;;;;5097949;28;20036;-79
2023/09/23 06:57:04;;;;;;;8.05;5.53;;;;;;;;;;5108159;28;20100;-79
2023/09/23 06:59:30;;;;;;;6.05;5.45;;;;;;;;;;5115927;28;20051;-80
2023/09/23 07:01:56;;;;;;;8.23;5.32;;;;;;;;;;5116001;28;20039;-79
2023/09/23 07:04:22;;;;;;;7.32;5.18;;;;;;;;;;5112176;28;20040;-79
2023/09/23 07:06:49;;;;;;;6.68;5.25;;;;;;;;;;5115398;27;20075;-79
2023/09/23 07:09:15;;;;;;;7.38;5.85;;;;;;;;;;5112288;27;20051;-79
2023/09/23 07:11:41;;;;;;;7.72;5.45;;;;;;;;;;5115426;28;20044;-79
2023/09/23 07:14:07;;;;;;;5.38;4.75;;;;;;;;;;5106333;28;20039;-79
2023/09/23 07:16:33;;;;;;;6.25;4.95;;;;;;;;;;5109193;28;20040;-79
2023/09/23 07:19:00;;;;;;;6.28;4.78;;;;;;;;;;5095074;28;20040;-78
2023/09/23 07:21:27;;;;;;;8.23;4.60;;;;;;;;;;5107434;28;20101;-79
2023/09/23 07:23:53;;;;;;;5.22;4.05;;;;;;;;;;5104905;28;20407;-79
2023/09/23 07:26:22;;;;;;;4.43;3.75;;;;;;;;;;5096993;28;20055;-79
2023/09/23 07:28:50;;;;;;;6.82;3.88;;;;;;;;;;5117424;28;20124;-80
2023/09/23 07:31:16;;;;;;;5.30;3.40;;;;;;;;;;5100224;28;20044;-79
2023/09/23 07:33:42;;;;;;;5.55;3.53;;;;;;;;;;5103824;28;20031;-79
2023/09/23 07:36:10;;;;;;;5.38;2.97;;;;;;;;;;5110734;28;20118;-79
2023/09/23 07:38:36;;;;;;;6.03;3.20;;;;;;;;;;5104500;27;20051;-79
2023/09/23 07:41:03;;;;;;;5.38;3.50;;;;;;;;;;5111586;28;20116;-79
2023/09/23 07:43:29;;;;;;;4.80;3.72;;;;;;;;;;5100805;28;20040;-79
2023/09/23 07:45:55;;;;;;;6.50;3.83;;;;;;;;;;5109464;28;20042;-79
2023/09/23 07:48:21;;;;;;;5.25;3.72;;;;;;;;;;5109205;28;20044;-79
2023/09/23 07:50:47;;;;;;;5.38;3.72;;;;;;;;;;5096807;28;20044;-78
2023/09/23 07:53:13;;;;;;;6.88;4.15;;;;;;;;;;5110291;27;20040;-78
2023/09/23 07:55:40;;;;;;;5.90;4.32;;;;;;;;;;5111859;27;20050;-78
2023/09/23 07:58:06;;;;;;;5.35;4.30;;;;;;;;;;5114016;27;20051;-79
2023/09/23 08:00:32;;;;;;;6.05;3.53;;;;;;;;;;5112562;28;20411;-79
2023/09/23 08:02:58;;;;;;;3.72;3.25;;;;;;;;;;5110767;28;20490;-78
2023/09/23 08:05:25;;;;;;;4.10;2.80;;;;;;;;;;5114143;28;20044;-78
2023/09/23 08:07:51;;;;;;;5.47;2.63;;;;;;;;;;5111594;28;20075;-79
2023/09/23 08:10:17;;;;;;;3.83;3.03;;;;;;;;;;5103486;28;20128;-79
2023/09/23 08:12:46;;;;;;;4.00;2.50;;;;;;;;;;5096740;28;20479;-79
2023/09/23 08:15:13;;;;;;;4.93;2.30;;;;;;;;;;5104630;28;20468;-79
2023/09/23 08:17:39;;;;;;;5.00;2.50;;;;;;;;;;5099716;28;20448;-80
2023/09/23 08:20:17;;;;;;;4.65;2.60;;;;;;;;;;5106861;28;20108;-78
2023/09/23 08:22:43;;;;;;;3.42;2.20;;;;;;;;;;5111027;27;20036;-78
2023/09/23 08:25:09;;;;;;;3.53;2.35;;;;;;;;;;5098623;28;20126;-78
2023/09/23 08:27:35;;;;;;;5.43;2.92;;;;;;;;;;5105060;27;20051;-79
2023/09/23 08:30:01;;;;;;;4.22;2.72;;;;;;;;;;5100168;28;20077;-79
2023/09/23 08:32:27;;;;;;;4.28;2.88;;;;;;;;;;5112448;28;20043;-78
2023/09/23 08:34:53;;;;;;;5.93;2.92;;;;;;;;;;5112220;28;20420;-78
2023/09/23 08:37:20;;;;;;;7.75;3.10;;;;;;;;;;5112719;28;20043;-78
2023/09/23 08:39:46;;;;;;;4.82;2.80;;;;;;;;;;5108996;28;20062;-79
2023/09/23 08:42:12;;;;;;;8.55;2.70;;;;;;;;;;5113347;28;20184;-78
2023/09/23 08:44:38;;;;;;;3.47;2.72;;;;;;;;;;5111259;28;20074;-79
2023/09/23 08:47:05;;;;;;;4.15;2.30;;;;;;;;;;5107243;28;20368;-78
2023/09/23 08:49:32;;;;;;;4.75;2.10;;;;;;;;;;5113947;28;20576;-78
2023/09/23 08:51:58;;;;;;;6.80;2.00;;;;;;;;;;5109019;28;20179;-77
2023/09/23 08:54:26;;;;;;;3.20;2.20;;;;;;;;;;5107474;28;21345;-78
2023/09/23 08:56:54;;;;;;;5.22;2.10;;;;;;;;;;5099664;28;20047;-78
2023/09/23 08:59:20;;;;;;;3.83;2.00;;;;;;;;;;5110158;28;20096;-78
2023/09/23 09:01:46;;;;;;;4.57;1.90;;;;;;;;;;5098814;28;20123;-77
2023/09/23 09:04:14;;;;;;;3.58;2.10;;;;;;;;;;5092419;28;20051;-81
2023/09/23 09:06:55;;;;;;;2.22;1.90;;;;;;;;;;5104362;28;20044;-78
2023/09/23 09:09:21;;;;;;;2.50;1.85;;;;;;;;;;5099697;28;20097;-78
2023/09/23 09:11:48;;;;;;;4.65;2.10;;;;;;;;;;5115628;28;20487;-78
2023/09/23 09:14:15;;;;;;;3.35;1.75;;;;;;;;;;5091716;28;20083;-78
2023/09/23 09:16:41;;;;;;;4.40;1.80;;;;;;;;;;5093043;28;20063;-78
2023/09/23 09:19:07;;;;;;;3.33;1.77;;;;;;;;;;5105258;28;20392;-79
2023/09/23 09:21:34;;;;;;;3.72;1.60;;;;;;;;;;5109745;28;20483;-81
2023/09/23 09:24:00;;;;;;;2.58;1.73;;;;;;;;;;5113764;28;20106;-80
2023/09/23 09:26:26;;;;;;;3.97;1.83;;;;;;;;;;5104448;28;20039;-76
2023/09/23 09:28:53;;;;;;;3.90;1.63;;;;;;;;;;5111317;28;20044;-78
2023/09/23 09:31:19;;;;;;;2.25;1.50;;;;;;;;;;5097977;28;20097;-79
2023/09/23 09:33:48;;;;;;;3.75;1.90;;;;;;;;;;5120410;27;20082;-79
2023/09/23 09:36:18;;;;;;;2.92;1.70;;;;;;;;;;5115673;27;20047;-79
2023/09/23 09:38:44;;;;;;;2.85;1.45;;;;;;;;;;5105390;28;20055;-78
2023/09/23 09:41:15;;;;;;;3.72;1.63;;;;;;;;;;5116410;28;20126;-78
2023/09/23 09:43:41;;;;;;;3.10;1.65;;;;;;;;;;5117114;28;20039;-78
2023/09/23 09:46:10;;;;;;;3.25;1.52;;;;;;;;;;5102500;28;20051;-78
2023/09/23 09:48:43;;;;;;;2.05;1.38;;;;;;;;;;5115210;28;20080;-79
2023/09/23 09:51:14;;;;;;;3.88;1.70;;;;;;;;;;5114763;28;20046;-78
2023/09/23 09:53:40;;;;;;;2.63;1.60;;;;;;;;;;5116485;28;20051;-78
2023/09/23 09:56:07;;;;;;;3.50;1.60;;;;;;;;;;5114679;28;20048;-78
2023/09/23 09:58:39;;;;;;;3.83;1.95;;;;;;;;;;5116102;28;20402;-78
2023/09/23 10:01:12;;;;;;;3.72;1.67;;;;;;;;;;5116236;28;20079;-78
2023/09/23 10:03:38;;;;;;;3.72;1.35;;;;;;;;;;5116040;28;20433;-79
2023/09/23 10:06:07;;;;;;;3.55;2.00;;;;;;;;;;5099061;28;20040;-78
2023/09/23 10:08:38;;;;;;;3.20;1.48;;;;;;;;;;5109706;28;20407;-79
2023/09/23 10:11:09;;;;;;;3.95;1.90;;;;;;;;;;5112694;28;20055;-78
2023/09/23 10:13:35;;;;;;;6.45;1.63;;;;;;;;;;5094427;28;20051;-79
2023/09/23 10:16:05;;;;;;;2.55;1.70;;;;;;;;;;5103362;28;20048;-78
2023/09/23 10:18:37;;;;;;;1.88;1.50;;;;;;;;;;5115774;28;20043;-78
2023/09/23 10:21:03;;;;;;;3.97;1.80;;;;;;;;;;5115887;28;20503;-78
2023/09/23 10:23:35;;;;;;;4.38;1.70;;;;;;;;;;5100888;28;20036;-79
2023/09/23 10:26:13;;;;;;;3.60;1.50;;;;;;;;;;5105478;28;20499;-78
2023/09/23 10:28:39;;;;;;;3.55;1.60;;;;;;;;;;5113326;28;20040;-78
2023/09/23 10:31:10;;;;;;;3.38;1.58;;;;;;;;;;5115967;28;20035;-78
2023/09/23 10:33:37;;;;;;;3.25;1.55;;;;;;;;;;5115491;28;20111;-78
2023/09/23 10:36:03;;;;;;;2.38;1.48;;;;;;;;;;5115430;28;20052;-79
2023/09/23 10:38:34;;;;;;;1.60;1.38;;;;;;;;;;5114793;28;20055;-78
2023/09/23 10:41:01;;;;;;;2.65;1.70;;;;;;;;;;5113223;28;20101;-78
2023/09/23 10:43:27;;;;;;;2.65;1.65;;;;;;;;;;5113437;28;20051;-78
2023/09/23 10:45:57;;;;;;;3.05;1.52;;;;;;;;;;5115244;28;20410;-79
2023/09/23 10:48:23;;;;;;;2.72;1.73;;;;;;;;;;5115520;27;20043;-78
2023/09/23 10:50:51;;;;;;;3.15;1.60;;;;;;;;;;5100728;28;20484;-78
2023/09/23 10:53:18;;;;;;;2.17;1.70;;;;;;;;;;5115550;28;20052;-78
2023/09/23 10:55:45;;;;;;;3.05;1.63;;;;;;;;;;5113791;28;20123;-78
2023/09/23 10:58:11;;;;;;;2.78;1.70;;;;;;;;;;5102674;28;20495;-78
2023/09/23 11:00:38;;;;;;;4.68;2.13;;;;;;;;;;5113492;28;20046;-78
2023/09/23 11:03:08;;;;;;;3.83;1.92;;;;;;;;;;5094806;28;20055;-78
2023/09/23 11:05:37;;;;;;;3.95;2.20;;;;;;;;;;5110435;28;20047;-78
2023/09/23 11:08:03;;;;;;;3.45;2.05;;;;;;;;;;5104547;28;20081;-78
2023/09/23 11:10:29;;;;;;;3.35;1.55;;;;;;;;;;5105918;28;20044;-78
2023/09/23 11:12:55;;;;;;;4.82;1.90;;;;;;;;;;5114793;28;20473;-78
2023/09/23 11:15:21;;;;;;;1.90;1.58;;;;;;;;;;5111850;28;20046;-78
2023/09/23 11:17:47;;;;;;;3.25;1.50;;;;;;;;;;5103756;28;20036;-78
2023/09/23 11:20:14;;;;;;;3.65;1.60;;;;;;;;;;5114336;28;20055;-78
2023/09/23 11:22:43;;;;;;;2.17;1.40;;;;;;;;;;5113796;27;20066;-78
2023/09/23 11:25:11;;;;;;;2.80;1.70;;;;;;;;;;5113963;28;20097;-78
2023/09/23 11:27:37;;;;;;;3.65;1.67;;;;;;;;;;5099039;28;20138;-78
2023/09/23 11:30:05;;;;;;;2.67;1.55;;;;;;;;;;5111307;28;20100;-78
2023/09/23 11:32:32;;;;;;;2.20;1.80;;;;;;;;;;5114525;28;20054;-78
2023/09/23 11:35:00;;;;;;;2.10;1.63;;;;;;;;;;5114279;28;20112;-78
2023/09/23 11:37:26;;;;;;;4.13;1.88;;;;;;;;;;5113787;28;20086;-78
2023/09/23 11:39:53;;;;;;;3.35;2.00;;;;;;;;;;5109347;28;20068;-78
2023/09/23 11:42:20;;;;;;;2.58;1.70;;;;;;;;;;5093671;28;20078;-78
2023/09/23 11:44:46;;;;;;;2.75;1.80;;;;;;;;;;5111667;28;20048;-78
2023/09/23 11:47:12;;;;;;;2.17;1.70;;;;;;;;;;5112938;28;20449;-78
2023/09/23 11:49:38;;;;;;;2.42;2.10;;;;;;;;;;5113781;28;20035;-78
2023/09/23 11:52:12;;;;;;;3.35;2.10;;;;;;;;;;5114111;28;20096;-78
2023/09/23 11:54:38;;;;;;;4.15;2.13;;;;;;;;;;5113111;28;20043;-78
2023/09/23 11:57:04;;;;;;;5.18;2.05;;;;;;;;;;5110817;28;20036;-78
2023/09/23 11:59:30;;;;;;;2.88;2.00;;;;;;;;;;5112106;28;20049;-78
2023/09/23 12:01:56;;;;;;;3.83;2.05;;;;;;;;;;5114116;28;20046;-78
2023/09/23 12:04:22;;;;;;;2.50;2.00;;;;;;;;;;5113682;28;20052;-78
2023/09/23 12:06:48;;;;;;;3.53;2.20;;;;;;;;;;5112297;28;20154;-78
2023/09/23 12:09:14;;;;;;;3.33;1.80;;;;;;;;;;5098299;28;20119;-78
2023/09/23 12:11:41;;;;;;;2.65;1.70;;;;;;;;;;5108493;28;20047;-78
2023/09/23 12:14:08;;;;;;;2.50;1.52;;;;;;;;;;5112322;28;20114;-78
2023/09/23 12:16:35;;;;;;;4.15;1.88;;;;;;;;;;5113729;28;20468;-78
2023/09/23 12:19:01;;;;;;;3.00;1.38;;;;;;;;;;5113130;28;20054;-78
2023/09/23 12:21:27;;;;;;;2.10;1.42;;;;;;;;;;5113468;28;20657;-78
2023/09/23 12:23:59;;;;;;;3.20;1.48;;;;;;;;;;5113596;28;20114;-78
2023/09/23 12:26:28;;;;;;;2.40;1.40;;;;;;;;;;5102577;28;20118;-78
2023/09/23 12:28:54;;;;;;;2.40;1.75;;;;;;;;;;5113324;28;20044;-78
2023/09/23 12:31:20;;;;;;;2.35;1.50;;;;;;;;;;5113304;28;20046;-78
2023/09/23 12:33:46;;;;;;;1.25;1.15;;;;;;;;;;5112037;28;20043;-78
2023/09/23 12:36:13;;;;;;;4.28;1.63;;;;;;;;;;5099511;28;20048;-78
2023/09/23 12:38:39;;;;;;;1.80;1.40;;;;;;;;;;5112007;28;20046;-78
2023/09/23 12:41:05;;;;;;;2.05;1.30;;;;;;;;;;5110503;28;20123;-78
2023/09/23 12:43:31;;;;;;;1.95;1.20;;;;;;;;;;5113567;28;20072;-78
2023/09/23 12:45:57;;;;;;;2.55;1.50;;;;;;;;;;5112895;28;20408;-78
2023/09/23 12:48:23;;;;;;;4.72;1.40;;;;;;;;;;5105543;28;20048;-78
2023/09/23 12:50:49;;;;;;;2.33;1.45;;;;;;;;;;5107330;28;20122;-78
2023/09/23 12:53:15;;;;;;;2.83;1.80;;;;;;;;;;5113251;28;20097;-78
2023/09/23 12:55:41;;;;;;;2.20;1.33;;;;;;;;;;5095393;28;20055;-78
2023/09/23 12:58:08;;;;;;;3.10;1.55;;;;;;;;;;5092728;28;20093;-78
2023/09/23 13:00:34;;;;;;;2.65;1.40;;;;;;;;;;5092834;28;20083;-78
2023/09/23 13:03:00;;;;;;;4.45;1.42;;;;;;;;;;5105444;28;20044;-78
2023/09/23 13:05:26;;;;;;;2.70;1.40;;;;;;;;;;5106058;28;20039;-78
2023/09/23 13:07:52;;;;;;;2.70;1.60;;;;;;;;;;5112919;28;20050;-78
2023/09/23 13:10:18;;;;;;;4.47;1.75;;;;;;;;;;5111814;28;20046;-78
2023/09/23 13:12:44;;;;;;;1.95;1.40;;;;;;;;;;5112977;28;20040;-78
2023/09/23 13:15:11;;;;;;;2.13;1.48;;;;;;;;;;5112866;28;20036;-78
2023/09/23 13:17:37;;;;;;;2.30;1.60;;;;;;;;;;5112880;28;20039;-78
2023/09/23 13:20:04;;;;;;;2.28;1.35;;;;;;;;;;5101684;28;20085;-78
2023/09/23 13:22:30;;;;;;;2.42;1.35;;;;;;;;;;5105255;28;20040;-78
2023/09/23 13:24:56;;;;;;;4.30;1.60;;;;;;;;;;5106522;28;20050;-78
2023/09/23 13:27:22;;;;;;;2.20;1.70;;;;;;;;;;5112589;28;20052;-78
2023/09/23 13:29:48;;;;;;;1.55;1.40;;;;;;;;;;5112511;28;20059;-78
2023/09/23 13:32:16;;;;;;;3.35;1.70;;;;;;;;;;5112929;28;20048;-78
2023/09/23 13:34:43;;;;;;;2.05;1.35;;;;;;;;;;5102490;28;20051;-78
2023/09/23 13:37:10;;;;;;;3.13;1.30;;;;;;;;;;5112912;28;20047;-78
2023/09/23 13:39:36;;;;;;;1.25;1.15;;;;;;;;;;5099435;28;20142;-78
2023/09/23 13:42:02;;;;;;;1.30;1.02;;;;;;;;;;5112560;28;20063;-78
2023/09/23 13:44:28;;;;;;;3.35;1.63;;;;;;;;;;5112306;28;20047;-78
2023/09/23 13:46:54;;;;;;;3.08;1.20;;;;;;;;;;5112525;28;20567;-78
2023/09/23 13:49:20;;;;;;;2.35;1.17;;;;;;;;;;5110542;28;20483;-78
2023/09/23 13:51:46;;;;;;;3.00;1.13;;;;;;;;;;5112650;28;20479;-78
2023/09/23 13:54:13;;;;;;;3.92;1.20;;;;;;;;;;5101656;28;20051;-78
2023/09/23 13:56:39;;;;;;;2.42;0.98;;;;;;;;;;5112219;28;20435;-78
2023/09/23 13:59:05;;;;;;;2.63;1.10;;;;;;;;;;5112327;28;20116;-78
2023/09/23 14:01:31;;;;;;;2.25;0.98;;;;;;;;;;5112638;28;20043;-78
2023/09/23 14:03:57;;;;;;;4.63;1.70;;;;;;;;;;5104786;28;20044;-78
2023/09/23 14:06:23;;;;;;;2.15;1.00;;;;;;;;;;5112442;28;20491;-78
2023/09/23 14:08:49;;;;;;;2.72;1.27;;;;;;;;;;5100861;28;20052;-78
2023/09/23 14:11:15;;;;;;;2.33;1.00;;;;;;;;;;5098549;28;20119;-78
2023/09/23 14:13:43;;;;;;;2.45;1.20;;;;;;;;;;5088586;28;20115;-77
2023/09/23 14:16:10;;;;;;;2.03;1.20;;;;;;;;;;5101344;28;20048;-77
2023/09/23 14:18:36;;;;;;;1.48;0.95;;;;;;;;;;5106769;27;20048;-77
2023/09/23 14:21:02;;;;;;;1.92;1.08;;;;;;;;;;5104474;28;20051;-77
2023/09/23 14:23:28;;;;;;;4.05;1.25;;;;;;;;;;5109686;28;20487;-78
2023/09/23 14:25:54;;;;;;;3.95;1.20;;;;;;;;;;5103040;28;20040;-77
2023/09/23 14:28:20;;;;;;;3.35;1.65;;;;;;;;;;5106851;28;20090;-78
2023/09/23 14:30:47;;;;;;;3.50;1.08;;;;;;;;;;5099574;28;20075;-77
2023/09/23 14:33:13;;;;;;;2.40;1.00;;;;;;;;;;5108978;28;20578;-77
2023/09/23 14:35:39;;;;;;;1.23;1.02;;;;;;;;;;5115572;28;20047;-77
2023/09/23 14:38:05;;;;;;;2.28;1.00;;;;;;;;;;5110937;28;20053;-78
2023/09/23 14:40:31;;;;;;;3.45;0.98;;;;;;;;;;5112859;27;20047;-78